Aeroporto :
LOGIN :

Iscrizione | Disclaimer

   EN    FR    IT 

 










Sommario :    VFR   VFR Marginale   IFR   IFR Intensivo   IFR Molto Intensivo
Visibilità : 
Base nubi : 
>= 8 km
>= 3000ft
5 / 8 km
1000 / 3000 ft
1500m / 5 km
500 / 1000 ft
800 / 1500m
200 / 500 ft
< 800m
< 200 ft
Simboli :   Temporali  Nebbia  Neve Forte  Precipitazioni Forti  Vento > 20 kt
SIGMETs :   Varie  Temporali  Ghiacco  Turbolenza  Onda orograficha  Ceneri Vulcaniche






- Altitudine del aeroporto : 14 ft
- Codice IATA : BRE


EDDW - Bremen Neuenland

ULTIMO METAR :
  • 180920Z 23015KT 9999 SCT012 04/02 Q1020 NOSIG

METARs OBSOLETI :
  • 180850Z 23011KT 9999 SCT012 04/02 Q1020 NOSIG
  • 180820Z 23011KT 9999 FEW011 03/02 Q1020 NOSIG
  • 180750Z 22012KT 9999 FEW011 03/02 Q1020 NOSIG
  • 180720Z 22010KT 9999 FEW011 03/02 Q1020 TEMPO BKN011
  • 180650Z 23011KT 9999 SCT011 03/02 Q1019 TEMPO BKN011

TAF COR TAF EDDW
Valido dal 18 a 06 ore il 19 a 06 ore UTC


180553Z 1806/1906 24012KT 9999 SCT025
PROB30
TEMPO 1806/1808 BKN014
PROB40
TEMPO 1808/1811 25015G25KT
TEMPO 1811/1814 25015G30KT SHRA BKN012CB
PROB30
TEMPO 1811/1814 3500 SHRAGS BKN008CB
BECMG 1815/1817 25006KT
PROB30
TEMPO 1822/1902 28011KT BKN011



MetMap, La meteo Aeronautica in un colpo d'occhio ! - Copyright ORBIFLY Dicembre 2007 - Disclaimer

ORBIFLY MET'MAP TEAM :

Programmazione e sviluppo : Alexandra Zaïnal
Concezione : Baudouin d'Aumeries
Aiuto per la programmazione : Marc-Olivier Méhu
Supporto tecnico e logistico : Manuel Goepfert
Aiuto per la traduzione : Arnaldo La Scala

Contatto : metmap@orbifly.com




FONTI E CREDITI :

   NOAA